地図

経路データ

SID SEASON NUMBER BASIN SUBBASIN NAME ISO_TIME NATURE LAT LON WMO_WIND WMO_PRES WMO_AGENCY TRACK_TYPE DIST2LAND LANDFALL IFLAG USA_AGENCY USA_ATCF_ID USA_LAT USA_LON USA_RECORD USA_STATUS USA_WIND USA_PRES USA_SSHS USA_R34_NE USA_R34_SE USA_R34_SW USA_R34_NW USA_R50_NE USA_R50_SE USA_R50_SW USA_R50_NW USA_R64_NE USA_R64_SE USA_R64_SW USA_R64_NW USA_POCI USA_ROCI USA_RMW USA_EYE TOKYO_LAT TOKYO_LON TOKYO_GRADE TOKYO_WIND TOKYO_PRES TOKYO_R50_DIR TOKYO_R50_LONG TOKYO_R50_SHORT TOKYO_R30_DIR TOKYO_R30_LONG TOKYO_R30_SHORT TOKYO_LAND CMA_LAT CMA_LON CMA_CAT CMA_WIND CMA_PRES HKO_LAT HKO_LON HKO_CAT HKO_WIND HKO_PRES NEWDELHI_LAT NEWDELHI_LON NEWDELHI_GRADE NEWDELHI_WIND NEWDELHI_PRES NEWDELHI_CI NEWDELHI_DP NEWDELHI_POCI REUNION_LAT REUNION_LON REUNION_TYPE REUNION_WIND REUNION_PRES REUNION_TNUM REUNION_CI REUNION_RMW REUNION_R34_NE REUNION_R34_SE REUNION_R34_SW REUNION_R34_NW REUNION_R50_NE REUNION_R50_SE REUNION_R50_SW REUNION_R50_NW REUNION_R64_NE REUNION_R64_SE REUNION_R64_SW REUNION_R64_NW BOM_LAT BOM_LON BOM_TYPE BOM_WIND BOM_PRES BOM_TNUM BOM_CI BOM_RMW BOM_R34_NE BOM_R34_SE BOM_R34_SW BOM_R34_NW BOM_R50_NE BOM_R50_SE BOM_R50_SW BOM_R50_NW BOM_R64_NE BOM_R64_SE BOM_R64_SW BOM_R64_NW BOM_ROCI BOM_POCI BOM_EYE BOM_POS_METHOD BOM_PRES_METHOD NADI_LAT NADI_LON NADI_CAT NADI_WIND NADI_PRES WELLINGTON_LAT WELLINGTON_LON WELLINGTON_WIND WELLINGTON_PRES DS824_LAT DS824_LON DS824_STAGE DS824_WIND DS824_PRES TD9636_LAT TD9636_LON TD9636_STAGE TD9636_WIND TD9636_PRES TD9635_LAT TD9635_LON TD9635_WIND TD9635_PRES TD9635_ROCI NEUMANN_LAT NEUMANN_LON NEUMANN_CLASS NEUMANN_WIND NEUMANN_PRES MLC_LAT MLC_LON MLC_CLASS MLC_WIND MLC_PRES USA_GUST BOM_GUST BOM_GUST_PER REUNION_GUST REUNION_GUST_PER USA_SEAHGT USA_SEARAD_NE USA_SEARAD_SE USA_SEARAD_SW USA_SEARAD_NW STORM_SPEED STORM_DIR
1938271N11156 1938 53 WP MM NOT_NAMED 1938-09-27 21:00:00 NR 11.1000 155.900 main 1642 1617 __________O___ -1 11.1000 155.900 2 15 273
1938271N11156 1938 53 WP MM NOT_NAMED 1938-09-28 00:00:00 NR 11.1369 155.147 main 1614 1594 __________P___ -1 11.1369 155.147 2 15 272
1938271N11156 1938 53 WP MM NOT_NAMED 1938-09-28 03:00:00 NR 11.1487 154.325 main 1591 1570 __________P___ -1 11.1487 154.325 2 17 269
1938271N11156 1938 53 WP MM NOT_NAMED 1938-09-28 06:00:00 NR 11.1114 153.366 main 1570 1542 __________P___ -1 11.1114 153.366 2 21 266
1938271N11156 1938 53 WP MM NOT_NAMED 1938-09-28 09:00:00 NR 11.0000 152.200 main 1541 1496 __________O___ -1 11.0000 152.200 2 25 263
1938271N11156 1938 53 WP MM NOT_NAMED 1938-09-28 12:00:00 NR 10.8004 150.799 main 1493 1440 __________P___ -1 10.8004 150.799 2 29 261
1938271N11156 1938 53 WP MM NOT_NAMED 1938-09-28 15:00:00 NR 10.5489 149.297 main 1427 1390 __________P___ -1 10.5489 149.297 2 29 260
1938271N11156 1938 53 WP MM NOT_NAMED 1938-09-28 18:00:00 NR 10.2971 147.873 main 1390 1367 __________P___ -1 10.2971 147.873 2 26 260
1938271N11156 1938 53 WP MM NOT_NAMED 1938-09-28 21:00:00 NR 10.1000 146.700 main 1367 1356 __________O___ -1 10.1000 146.700 2 19 262
1938271N11156 1938 53 WP MM NOT_NAMED 1938-09-29 00:00:00 NR 10.0439 146.012 main 1357 1357 __________P___ -1 10.0439 146.012 2 11 267
1938271N11156 1938 53 WP MM NOT_NAMED 1938-09-29 03:00:00 NR 10.0508 145.583 main 1371 1371 __________P___ -1 10.0508 145.583 2 7 273
1938271N11156 1938 53 WP MM NOT_NAMED 1938-09-29 06:00:00 NR 10.0825 145.287 main 1374 1374 __________P___ -1 10.0825 145.287 2 6 275
1938271N11156 1938 53 WP MM NOT_NAMED 1938-09-29 09:00:00 NR 10.1000 145.000 main 1378 1378 __________O___ -1 10.1000 145.000 4 7 268
1938271N11156 1938 53 WP MM NOT_NAMED 1938-09-29 12:00:00 NR 10.0506 144.531 main 1386 1375 __________P___ -1 10.0506 144.531 4 9 263
1938271N11156 1938 53 WP MM NOT_NAMED 1938-09-29 15:00:00 NR 9.97998 144.050 main 1386 1377 __________P___ -1 9.97998 144.050 4 10 261
1938271N11156 1938 53 WP MM NOT_NAMED 1938-09-29 18:00:00 NR 9.89435 143.569 main 1385 1379 __________P___ -1 9.89435 143.569 4 10 259
1938271N11156 1938 53 WP MM NOT_NAMED 1938-09-29 21:00:00 NR 9.80000 143.100 main 1388 1371 __________O___ -1 9.80000 143.100 4 9 261
1938271N11156 1938 53 WP MM NOT_NAMED 1938-09-30 00:00:00 NR 9.75570 142.657 main 1371 1345 __________P___ -1 9.75570 142.657 4 9 263
1938271N11156 1938 53 WP MM NOT_NAMED 1938-09-30 03:00:00 NR 9.69720 142.228 main 1341 1316 __________P___ -1 9.69720 142.228 4 9 259
1938271N11156 1938 53 WP MM NOT_NAMED 1938-09-30 06:00:00 NR 9.59010 141.810 main 1316 1282 __________P___ -1 9.59010 141.810 4 9 250
1938271N11156 1938 53 WP MM NOT_NAMED 1938-09-30 09:00:00 NR 9.40000 141.400 main 1282 1238 __________O___ -1 9.40000 141.400 4 10 235
1938271N11156 1938 53 WP MM NOT_NAMED 1938-09-30 12:00:00 NR 9.02929 140.984 main 1227 1173 __________P___ -1 9.02929 140.984 4 12 225
1938271N11156 1938 53 WP MM NOT_NAMED 1938-09-30 15:00:00 NR 8.58489 140.577 main 1173 1115 __________P___ -1 8.58489 140.577 4 12 222
1938271N11156 1938 53 WP MM NOT_NAMED 1938-09-30 18:00:00 NR 8.14804 140.181 main 1105 1056 __________P___ -1 8.14804 140.181 4 11 224
1938271N11156 1938 53 WP MM NOT_NAMED 1938-09-30 21:00:00 NR 7.80000 139.800 main 1056 1022 __________O___ -1 7.80000 139.800 4 9 234
1938271N11156 1938 53 WP MM NOT_NAMED 1938-10-01 00:00:00 NR 7.62074 139.448 main 1018 995 __________P___ -1 7.62074 139.448 4 7 249
1938271N11156 1938 53 WP MM NOT_NAMED 1938-10-01 03:00:00 NR 7.54222 139.108 main 995 984 __________P___ -1 7.54222 139.108 4 7 263
1938271N11156 1938 53 WP MM NOT_NAMED 1938-10-01 06:00:00 NR 7.54260 138.764 main 984 980 __________P___ -1 7.54260 138.764 4 7 275
1938271N11156 1938 53 WP MM NOT_NAMED 1938-10-01 09:00:00 NR 7.60000 138.400 main 980 970 __________O___ -1 7.60000 138.400 4 8 279
1938271N11156 1938 53 WP MM NOT_NAMED 1938-10-01 12:00:00 NR 7.66662 137.985 main 978 969 __________P___ -1 7.66662 137.985 4 9 282
1938271N11156 1938 53 WP MM NOT_NAMED 1938-10-01 15:00:00 NR 7.78259 137.550 main 978 973 __________P___ -1 7.78259 137.550 4 9 287
1938271N11156 1938 53 WP MM NOT_NAMED 1938-10-01 18:00:00 NR 7.93225 137.116 main 977 977 __________P___ -1 7.93225 137.116 4 9 291
1938271N11156 1938 53 WP MM NOT_NAMED 1938-10-01 21:00:00 NR 8.10000 136.700 main 993 992 __________O___ -1 8.10000 136.700 4 8 294
1938271N11156 1938 53 WP MM NOT_NAMED 1938-10-02 00:00:00 NR 8.24358 136.401 main 1001 1001 __________P___ -1 8.24358 136.401 4 7 298
1938271N11156 1938 53 WP MM NOT_NAMED 1938-10-02 03:00:00 NR 8.40373 136.111 main 1021 1018 __________P___ -1 8.40373 136.111 4 7 299
1938271N11156 1938 53 WP MM NOT_NAMED 1938-10-02 06:00:00 NR 8.58706 135.766 main 1018 966 __________P___ -1 8.58706 135.766 4 9 296
1938271N11156 1938 53 WP MM NOT_NAMED 1938-10-02 09:00:00 NR 8.80000 135.300 main 966 894 __________O___ -1 8.80000 135.300 4 13 293
1938271N11156 1938 53 WP MM NOT_NAMED 1938-10-02 12:00:00 NR 9.07585 134.586 main 894 812 __________P___ -1 9.07585 134.586 4 16 291
1938271N11156 1938 53 WP MM NOT_NAMED 1938-10-02 15:00:00 NR 9.37424 133.754 main 814 725 __________P___ -1 9.37424 133.754 4 18 289
1938271N11156 1938 53 WP MM NOT_NAMED 1938-10-02 18:00:00 NR 9.66029 132.895 main 728 648 __________P___ -1 9.66029 132.895 4 17 288
1938271N11156 1938 53 WP MM NOT_NAMED 1938-10-02 21:00:00 NR 9.90000 132.100 main 648 586 __________O___ -1 9.90000 132.100 4 14 285
1938271N11156 1938 53 WP MM NOT_NAMED 1938-10-03 00:00:00 NR 10.0372 131.491 main 586 536 __________P___ -1 10.0372 131.491 4 11 282
1938271N11156 1938 53 WP MM NOT_NAMED 1938-10-03 03:00:00 NR 10.1288 130.959 main 536 484 __________P___ -1 10.1288 130.959 4 10 280
1938271N11156 1938 53 WP MM NOT_NAMED 1938-10-03 06:00:00 NR 10.2061 130.473 main 484 434 __________P___ -1 10.2061 130.473 4 10 280
1938271N11156 1938 53 WP MM NOT_NAMED 1938-10-03 09:00:00 NR 10.3000 130.000 main 434 386 __________O___ -1 10.3000 130.000 4 10 283
1938271N11156 1938 53 WP MM NOT_NAMED 1938-10-03 12:00:00 NR 10.4455 129.436 main 375 334 __________P___ -1 10.4455 129.436 4 11 286
1938271N11156 1938 53 WP MM NOT_NAMED 1938-10-03 15:00:00 NR 10.6129 128.888 main 334 284 __________P___ -1 10.6129 128.888 4 11 289
1938271N11156 1938 53 WP MM NOT_NAMED 1938-10-03 18:00:00 NR 10.7987 128.396 main 284 240 __________P___ -1 10.7987 128.396 4 10 294
1938271N11156 1938 53 WP MM NOT_NAMED 1938-10-03 21:00:00 NR 11.0000 128.000 main 240 218 __________O___ -1 11.0000 128.000 4 7 303
1938271N11156 1938 53 WP MM NOT_NAMED 1938-10-04 00:00:00 NR 11.1774 127.793 main 219 208 __________P___ -1 11.1774 127.793 4 5 320
1938271N11156 1938 53 WP MM NOT_NAMED 1938-10-04 03:00:00 NR 11.3740 127.676 main 212 201 __________P___ -1 11.3740 127.676 4 5 333
1938271N11156 1938 53 WP MM NOT_NAMED 1938-10-04 06:00:00 NR 11.6087 127.571 main 207 196 __________P___ -1 11.6087 127.571 4 6 333
1938271N11156 1938 53 WP MM NOT_NAMED 1938-10-04 09:00:00 NR 11.9000 127.400 main 201 174 __________O___ -1 11.9000 127.400 4 9 325
1938271N11156 1938 53 WP MM NOT_NAMED 1938-10-04 12:00:00 NR 12.3123 127.063 main 174 141 __________P___ -1 12.3123 127.063 4 11 320
1938271N11156 1938 53 WP MM NOT_NAMED 1938-10-04 15:00:00 NR 12.7727 126.649 main 137 132 __________P___ -1 12.7727 126.649 4 13 317
1938271N11156 1938 53 WP MM NOT_NAMED 1938-10-04 18:00:00 NR 13.2217 126.185 main 132 124 __________P___ -1 13.2217 126.185 4 12 312
1938271N11156 1938 53 WP MM NOT_NAMED 1938-10-04 21:00:00 NR 13.6000 125.700 main 134 108 __________O___ -1 13.6000 125.700 4 10 305
1938271N11156 1938 53 WP MM NOT_NAMED 1938-10-05 00:00:00 NR 13.7901 125.354 main 108 64 __________P___ -1 13.7901 125.354 4 8 294
1938271N11156 1938 53 WP MM NOT_NAMED 1938-10-05 03:00:00 NR 13.9109 124.978 main 64 15 __________P___ -1 13.9109 124.978 4 9 286
1938271N11156 1938 53 WP MM NOT_NAMED 1938-10-05 06:00:00 NR 14.0265 124.488 main 15 10 __________P___ -1 14.0265 124.488 4 12 284
1938271N11156 1938 53 WP MM NOT_NAMED 1938-10-05 09:00:00 NR 14.2000 123.800 main 35 24 __________O___ -1 14.2000 123.800 4 18 287
1938271N11156 1938 53 WP MM NOT_NAMED 1938-10-05 12:00:00 NR 14.5521 122.711 main 44 0 __________P___ -1 14.5521 122.711 4 24 288
1938271N11156 1938 53 WP MM NOT_NAMED 1938-10-05 15:00:00 NR 14.9578 121.435 main 0 0 __________P___ -1 14.9578 121.435 4 26 288
1938271N11156 1938 53 WP MM NOT_NAMED 1938-10-05 18:00:00 NR 15.3587 120.141 main 0 0 __________P___ -1 15.3587 120.141 4 25 288
1938271N11156 1938 53 WP MM NOT_NAMED 1938-10-05 21:00:00 NR 15.7000 119.000 main 82 82 __________O___ -1 15.7000 119.000 4 18 287
1938271N11156 1938 53 WP MM NOT_NAMED 1938-10-06 00:00:00 NR 15.9133 118.312 main 150 150 __________P___ -1 15.9133 118.312 4 12 288
1938271N11156 1938 53 WP MM NOT_NAMED 1938-10-06 03:00:00 NR 16.0677 117.787 main 203 203 __________P___ -1 16.0677 117.787 4 10 286
1938271N11156 1938 53 WP MM NOT_NAMED 1938-10-06 06:00:00 NR 16.1886 117.294 main 257 257 __________P___ -1 16.1886 117.294 4 11 283
1938271N11156 1938 53 WP MM NOT_NAMED 1938-10-06 09:00:00 NR 16.3000 116.700 main 322 322 __________O___ -1 16.3000 116.700 7 15 279
1938271N11156 1938 53 WP MM NOT_NAMED 1938-10-06 12:00:00 NR 16.4150 115.749 main 429 429 __________P___ -1 16.4150 115.749 7 19 277
1938271N11156 1938 53 WP MM NOT_NAMED 1938-10-06 15:00:00 NR 16.5245 114.692 main 514 418 __________P___ -1 16.5245 114.692 7 20 277
1938271N11156 1938 53 WP MM NOT_NAMED 1938-10-06 18:00:00 NR 16.6463 113.639 main 410 323 __________P___ -1 16.6463 113.639 7 19 278
1938271N11156 1938 53 WP MM NOT_NAMED 1938-10-06 21:00:00 NR 16.8000 112.700 main 323 254 __________O___ -1 16.8000 112.700 7 17 282
1938271N11156 1938 53 WP MM NOT_NAMED 1938-10-07 00:00:00 NR 17.0016 111.956 main 254 198 __________P___ -1 17.0016 111.956 7 13 289
1938271N11156 1938 53 WP MM NOT_NAMED 1938-10-07 03:00:00 NR 17.2445 111.379 main 198 138 __________P___ -1 17.2445 111.379 7 11 297
1938271N11156 1938 53 WP MM NOT_NAMED 1938-10-07 06:00:00 NR 17.5153 110.912 main 138 85 __________P___ -1 17.5153 110.912 7 10 304
1938271N11156 1938 53 WP MM NOT_NAMED 1938-10-07 09:00:00 NR 17.8000 110.500 main 85 __________O___ -1 17.8000 110.500 7 10 306

デジタル台風データ・検索

IBTrACS Databaseについて

本データベースは、米国NOAAが公開する1842年以降の世界の熱帯低気圧のベストトラックデータアーカイブInternational Best Track Archive for Climate Stewardship (IBTrACS)を、ウェブで閲覧しやすい形式に変換したものです。

最終更新日:2021-10-27